createdAt,value
2018-06-14T00:01:27.337Z,17.40
2018-06-14T00:03:56.609Z,11.20
2018-06-14T00:06:25.716Z,11.43
2018-06-14T00:08:54.927Z,14.00
2018-06-14T00:11:24.095Z,16.10
2018-06-14T00:13:53.222Z,13.83
2018-06-14T00:16:22.362Z,19.47
2018-06-14T00:18:51.457Z,11.03
2018-06-14T00:21:20.610Z,13.73
2018-06-14T00:23:49.806Z,11.20
2018-06-14T00:26:18.954Z,9.73
2018-06-14T00:28:48.079Z,10.93
2018-06-14T00:31:17.198Z,11.93
2018-06-14T00:33:46.352Z,13.33
2018-06-14T00:36:15.536Z,13.47
2018-06-14T00:38:44.749Z,10.60
2018-06-14T00:41:13.926Z,20.10
2018-06-14T00:43:43.081Z,12.10
2018-06-14T00:46:12.174Z,14.70
2018-06-14T00:48:41.376Z,13.03
2018-06-14T00:51:10.513Z,13.70
2018-06-14T00:53:39.671Z,11.77
2018-06-14T00:56:08.852Z,11.10
2018-06-14T00:58:37.942Z,15.23
2018-06-14T01:01:07.145Z,19.17
2018-06-14T01:03:36.254Z,14.27
2018-06-14T01:06:05.446Z,9.73
2018-06-14T01:08:34.541Z,10.80
2018-06-14T01:11:03.641Z,9.20
2018-06-14T01:13:32.891Z,11.23
2018-06-14T01:16:02.066Z,15.00
2018-06-14T01:18:31.194Z,14.53
2018-06-14T01:21:00.415Z,15.23
2018-06-14T01:23:29.607Z,17.17
2018-06-14T01:25:58.780Z,12.37
2018-06-14T01:28:27.956Z,11.60
2018-06-14T01:30:57.113Z,15.70
2018-06-14T01:33:26.260Z,18.83
2018-06-14T01:35:55.385Z,11.10
2018-06-14T01:38:26.161Z,14.83
2018-06-14T01:40:55.642Z,12.63
2018-06-14T01:43:24.800Z,13.20
2018-06-14T01:45:53.935Z,15.27
2018-06-14T01:48:23.093Z,16.83
2018-06-14T01:50:52.282Z,14.70
2018-06-14T01:53:21.537Z,21.27
2018-06-14T01:55:50.770Z,13.43
2018-06-14T01:58:19.995Z,13.53
2018-06-14T02:00:49.131Z,14.13
2018-06-14T02:03:18.281Z,11.23
2018-06-14T02:05:47.408Z,10.30
2018-06-14T02:08:16.736Z,10.60
2018-06-14T02:10:45.922Z,13.50
2018-06-14T02:13:15.065Z,20.43
2018-06-14T02:15:44.186Z,11.57
2018-06-14T02:18:13.304Z,11.90
2018-06-14T02:20:42.453Z,19.73
2018-06-14T02:23:11.599Z,12.70
2018-06-14T02:25:40.739Z,11.77
2018-06-14T02:28:09.874Z,13.13
2018-06-14T02:30:39.105Z,10.57
2018-06-14T02:33:08.330Z,11.77
2018-06-14T02:35:37.481Z,13.57
2018-06-14T02:38:06.587Z,12.40
2018-06-14T02:40:35.708Z,13.80
2018-06-14T02:43:04.824Z,11.57
2018-06-14T02:45:33.995Z,10.90
2018-06-14T02:48:03.189Z,11.23
2018-06-14T02:50:32.324Z,11.37
2018-06-14T02:53:01.536Z,16.63
2018-06-14T02:55:30.708Z,12.20
2018-06-14T02:57:59.806Z,18.27
2018-06-14T03:00:28.946Z,12.93
2018-06-14T03:02:58.094Z,16.93
2018-06-14T03:05:27.294Z,13.40
2018-06-14T03:07:56.415Z,10.57
2018-06-14T03:10:25.618Z,12.53
2018-06-14T03:12:54.783Z,17.00
2018-06-14T03:15:25.731Z,12.10
2018-06-14T03:17:55.448Z,11.30
2018-06-14T03:20:26.503Z,10.50
2018-06-14T03:22:56.390Z,12.20
2018-06-14T03:25:25.578Z,16.97
2018-06-14T03:27:54.749Z,16.90
2018-06-14T03:30:23.906Z,12.73
2018-06-14T03:32:52.784Z,14.73
2018-06-14T03:35:22.168Z,16.20
2018-06-14T03:37:51.285Z,15.67
2018-06-14T03:40:20.427Z,10.13
2018-06-14T03:42:49.616Z,20.27
2018-06-14T03:45:19.968Z,10.00
2018-06-14T03:47:50.434Z,11.90
2018-06-14T03:50:19.609Z,13.70
2018-06-14T03:52:48.713Z,11.83
2018-06-14T03:55:18.030Z,13.00
2018-06-14T03:57:47.178Z,18.70
2018-06-14T04:00:16.333Z,13.30
2018-06-14T04:02:45.556Z,19.70
2018-06-14T04:05:14.731Z,12.30
2018-06-14T04:07:44.076Z,13.50
2018-06-14T04:10:13.214Z,12.97
2018-06-14T04:12:42.390Z,12.40
2018-06-14T04:15:11.563Z,20.37
2018-06-14T04:17:40.719Z,11.27
2018-06-14T04:20:09.906Z,16.10
2018-06-14T04:22:39.032Z,10.50
2018-06-14T04:25:08.185Z,14.20
2018-06-14T04:27:37.345Z,13.70
2018-06-14T04:30:06.606Z,18.03
2018-06-14T04:32:35.813Z,10.03
2018-06-14T04:35:05.021Z,12.00
2018-06-14T04:37:34.263Z,13.80
2018-06-14T04:40:03.455Z,11.73
2018-06-14T04:42:33.244Z,12.30
2018-06-14T04:45:02.646Z,10.80
2018-06-14T04:47:31.799Z,14.93
2018-06-14T04:50:00.936Z,13.90
2018-06-14T04:52:30.094Z,15.60
2018-06-14T04:54:59.213Z,16.83
2018-06-14T04:57:28.398Z,12.40
2018-06-14T04:59:57.507Z,13.17
2018-06-14T05:02:26.652Z,18.53
2018-06-14T05:04:55.851Z,17.17
2018-06-14T05:07:25.012Z,12.80
2018-06-14T05:09:54.132Z,11.33
2018-06-14T05:12:23.288Z,16.97
2018-06-14T05:14:52.502Z,14.90
2018-06-14T05:17:21.629Z,12.27
2018-06-14T05:19:50.749Z,12.17
2018-06-14T05:22:20.710Z,14.53
2018-06-14T05:24:49.875Z,21.33
2018-06-14T05:27:19.021Z,14.77
2018-06-14T05:29:48.247Z,10.33
2018-06-14T05:32:17.362Z,19.10
2018-06-14T05:34:46.498Z,11.87
2018-06-14T05:37:15.657Z,16.87
2018-06-14T05:39:44.838Z,11.00
2018-06-14T05:42:13.976Z,15.40
2018-06-14T05:44:43.133Z,10.83
2018-06-14T05:47:12.272Z,16.30
2018-06-14T05:49:41.474Z,12.73
2018-06-14T05:52:10.669Z,13.50
2018-06-14T05:54:40.046Z,13.83
2018-06-14T05:57:09.159Z,15.17
2018-06-14T05:59:38.354Z,14.57
2018-06-14T06:02:07.583Z,12.37
2018-06-14T06:04:36.679Z,15.57
2018-06-14T06:07:05.894Z,14.10
2018-06-14T06:09:35.006Z,12.73
2018-06-14T06:12:04.135Z,11.50
2018-06-14T06:14:33.361Z,14.03
2018-06-14T06:17:02.550Z,17.20
2018-06-14T06:19:31.694Z,12.13
2018-06-14T06:22:00.919Z,15.83
2018-06-14T06:24:30.089Z,21.50
2018-06-14T06:26:59.397Z,17.90
2018-06-14T06:29:28.573Z,12.83
2018-06-14T06:31:57.746Z,14.60
2018-06-14T06:34:26.886Z,15.37
2018-06-14T06:36:56.033Z,17.23
2018-06-14T06:39:25.189Z,15.30
2018-06-14T06:41:54.411Z,16.37
2018-06-14T06:44:23.545Z,16.40
2018-06-14T06:46:52.694Z,10.70
2018-06-14T06:49:21.796Z,13.80
2018-06-14T06:51:50.990Z,15.13
2018-06-14T06:54:20.112Z,19.20
2018-06-14T06:56:49.283Z,16.20
2018-06-14T06:59:18.477Z,15.63
2018-06-14T07:01:47.692Z,15.20
2018-06-14T07:04:16.874Z,17.60
2018-06-14T07:06:46.061Z,13.53
2018-06-14T07:09:15.290Z,16.33
2018-06-14T07:11:44.546Z,17.60
2018-06-14T07:14:13.743Z,11.80
2018-06-14T07:16:42.857Z,12.17
2018-06-14T07:19:11.969Z,18.83
2018-06-14T07:21:41.143Z,13.57
2018-06-14T07:24:10.273Z,12.30
2018-06-14T07:26:39.384Z,13.70
2018-06-14T07:29:08.514Z,12.83
2018-06-14T07:31:37.682Z,18.33
2018-06-14T07:34:06.892Z,10.80
2018-06-14T07:36:36.035Z,13.60
2018-06-14T07:39:09.917Z,14.00
2018-06-14T07:41:39.116Z,11.43
2018-06-14T07:44:08.299Z,14.63
2018-06-14T07:46:37.459Z,10.90
2018-06-14T07:49:06.649Z,12.77
2018-06-14T07:51:35.814Z,10.80
2018-06-14T07:54:05.015Z,10.13
2018-06-14T07:56:34.180Z,11.73
2018-06-14T07:59:03.314Z,12.60
2018-06-14T08:01:32.483Z,14.53
2018-06-14T08:04:01.668Z,14.33
2018-06-14T08:06:30.858Z,14.33
2018-06-14T08:08:59.988Z,14.23
2018-06-14T08:11:29.116Z,13.00
2018-06-14T08:13:58.255Z,13.73
2018-06-14T08:16:27.361Z,14.47
2018-06-14T08:18:56.800Z,12.60
2018-06-14T08:21:25.921Z,12.80
2018-06-14T08:23:55.030Z,13.33
2018-06-14T08:26:24.114Z,12.60
2018-06-14T08:28:53.352Z,19.00
2018-06-14T08:31:22.649Z,10.50
2018-06-14T08:33:51.813Z,13.37
2018-06-14T08:36:20.962Z,14.43
2018-06-14T08:38:50.111Z,14.20
2018-06-14T08:41:19.246Z,19.90
2018-06-14T08:43:48.353Z,20.30
2018-06-14T08:46:17.539Z,29.60
2018-06-14T08:48:46.665Z,13.30
2018-06-14T08:51:15.865Z,16.87
2018-06-14T08:53:45.032Z,14.80
2018-06-14T08:56:14.193Z,17.80
2018-06-14T08:58:43.281Z,13.00
2018-06-14T09:01:12.433Z,20.87
2018-06-14T09:03:41.549Z,32.53
2018-06-14T09:06:10.652Z,16.57
2018-06-14T09:08:39.784Z,10.77
2018-06-14T09:11:08.983Z,10.97
2018-06-14T09:13:38.092Z,14.83
2018-06-14T09:16:07.244Z,11.00
2018-06-14T09:18:36.329Z,11.27
2018-06-14T09:21:05.500Z,11.27
2018-06-14T09:23:34.744Z,12.53
2018-06-14T09:26:03.873Z,13.10
2018-06-14T09:28:33.005Z,10.03
2018-06-14T09:31:02.178Z,12.23
2018-06-14T09:33:31.326Z,14.43
2018-06-14T09:36:00.490Z,13.90
2018-06-14T09:38:29.662Z,9.80
2018-06-14T09:40:58.779Z,9.60
2018-06-14T09:43:27.986Z,13.83
2018-06-14T09:45:57.125Z,12.20
2018-06-14T09:48:26.243Z,14.73
2018-06-14T09:50:55.417Z,10.47
2018-06-14T09:53:24.513Z,26.40
2018-06-14T09:55:53.682Z,12.07
2018-06-14T09:58:22.876Z,11.90
2018-06-14T10:00:52.076Z,13.77
2018-06-14T10:03:21.254Z,11.43
2018-06-14T10:05:50.465Z,11.40
2018-06-14T10:08:19.613Z,12.77
2018-06-14T10:10:48.757Z,10.70
2018-06-14T10:13:18.003Z,11.20
2018-06-14T10:15:47.157Z,16.87
2018-06-14T10:18:16.273Z,12.57
2018-06-14T10:20:45.409Z,14.90
2018-06-14T10:23:14.637Z,12.43
2018-06-14T10:25:43.725Z,13.73
2018-06-14T10:28:12.782Z,13.93
2018-06-14T10:30:41.977Z,12.73
2018-06-14T10:33:11.149Z,10.50
2018-06-14T10:35:40.300Z,13.67
2018-06-14T10:38:09.475Z,14.13
2018-06-14T10:40:38.647Z,13.83
2018-06-14T10:43:08.046Z,15.10
2018-06-14T10:45:37.194Z,13.43
2018-06-14T10:48:06.247Z,11.30
2018-06-14T10:50:35.397Z,10.47
2018-06-14T10:53:04.566Z,11.27
2018-06-14T10:55:33.649Z,11.93
2018-06-14T10:58:02.866Z,11.90
2018-06-14T11:00:32.025Z,9.77
2018-06-14T11:03:01.229Z,12.00
2018-06-14T11:05:30.382Z,16.13
2018-06-14T11:07:59.494Z,10.10
2018-06-14T11:10:28.650Z,13.20
2018-06-14T11:12:57.817Z,10.73
2018-06-14T11:15:27.178Z,9.57
2018-06-14T11:17:56.357Z,11.27
2018-06-14T11:20:25.704Z,10.67
2018-06-14T11:22:54.825Z,9.20
2018-06-14T11:25:24.071Z,10.00
2018-06-14T11:27:53.189Z,13.10
2018-06-14T11:30:22.374Z,12.33
2018-06-14T11:32:51.528Z,14.40
2018-06-14T11:35:22.122Z,13.40
2018-06-14T11:37:51.307Z,11.00
2018-06-14T11:40:20.482Z,11.70
2018-06-14T11:42:49.615Z,9.43
2018-06-14T11:45:20.866Z,17.70
2018-06-14T11:47:50.413Z,8.03
2018-06-14T11:50:19.555Z,9.03
2018-06-14T11:52:48.791Z,8.70
2018-06-14T11:55:17.915Z,8.93
2018-06-14T11:57:47.144Z,12.10
2018-06-14T12:00:16.324Z,12.83
2018-06-14T12:02:45.421Z,10.60
2018-06-14T12:05:14.678Z,11.03
2018-06-14T12:07:43.819Z,8.83
2018-06-14T12:10:12.908Z,6.90
2018-06-14T12:12:42.093Z,6.80
2018-06-14T12:15:11.232Z,9.97
2018-06-14T12:17:40.371Z,9.57
2018-06-14T12:20:09.489Z,6.67
2018-06-14T12:22:38.574Z,8.63
2018-06-14T12:25:07.689Z,8.10
2018-06-14T12:27:36.894Z,9.53
2018-06-14T12:30:06.029Z,8.20
2018-06-14T12:32:35.206Z,8.70
2018-06-14T12:35:04.439Z,7.70
2018-06-14T12:37:33.640Z,8.50
2018-06-14T12:40:02.776Z,19.10
2018-06-14T12:42:31.912Z,9.03
2018-06-14T12:45:00.984Z,8.20
2018-06-14T12:47:30.101Z,8.60
2018-06-14T12:49:59.263Z,8.33
2018-06-14T12:52:28.388Z,14.50
2018-06-14T12:54:57.532Z,9.80
2018-06-14T12:57:26.747Z,10.83
2018-06-14T12:59:55.968Z,7.27
2018-06-14T13:02:25.163Z,7.00
2018-06-14T13:04:54.452Z,8.10
2018-06-14T13:07:23.588Z,6.90
2018-06-14T13:09:52.696Z,6.60
2018-06-14T13:12:21.838Z,7.23
2018-06-14T13:14:51.042Z,8.30
2018-06-14T13:17:20.158Z,11.23
2018-06-14T13:19:49.342Z,7.77
2018-06-14T13:22:18.494Z,6.40
2018-06-14T13:24:47.652Z,5.67
2018-06-14T13:27:16.762Z,8.77
2018-06-14T13:29:45.919Z,4.73
2018-06-14T13:32:15.116Z,6.13
2018-06-14T13:34:44.327Z,9.60
2018-06-14T13:37:14.435Z,6.30
2018-06-14T13:39:43.599Z,9.13
2018-06-14T13:42:12.797Z,8.60
2018-06-14T13:44:42.018Z,8.97
2018-06-14T13:47:11.136Z,7.73
2018-06-14T13:49:40.277Z,9.20
2018-06-14T13:52:09.405Z,7.13
2018-06-14T13:54:38.531Z,8.33
2018-06-14T13:57:07.734Z,6.50
2018-06-14T13:59:36.886Z,6.40
2018-06-14T14:02:06.059Z,5.87
2018-06-14T14:04:35.197Z,6.63
2018-06-14T14:07:05.753Z,7.40
2018-06-14T14:09:35.212Z,6.70
2018-06-14T14:12:04.389Z,6.47
2018-06-14T14:14:33.563Z,6.20
2018-06-14T14:17:02.687Z,6.93
2018-06-14T14:19:34.871Z,8.23
2018-06-14T14:22:04.018Z,8.43
2018-06-14T14:24:33.741Z,12.63
2018-06-14T14:27:02.949Z,11.13
2018-06-14T14:29:35.758Z,6.40
2018-06-14T14:32:05.226Z,8.67
2018-06-14T14:34:34.412Z,9.17
2018-06-14T14:37:04.069Z,8.33
2018-06-14T14:39:33.857Z,6.60
2018-06-14T14:42:03.363Z,7.67
2018-06-14T14:44:33.810Z,6.40
2018-06-14T14:47:02.934Z,5.80
2018-06-14T14:49:32.093Z,7.20
2018-06-14T14:52:01.917Z,9.97
2018-06-14T14:54:31.815Z,5.80
2018-06-14T14:57:01.797Z,6.17
2018-06-14T14:59:31.218Z,10.00
2018-06-14T15:02:00.414Z,6.00
2018-06-14T15:04:32.132Z,7.00
2018-06-14T15:07:01.289Z,7.90
2018-06-14T15:09:30.465Z,8.67
2018-06-14T15:11:59.681Z,6.27
2018-06-14T15:14:28.893Z,10.33
2018-06-14T15:16:58.052Z,8.40
2018-06-14T15:19:28.664Z,7.83
2018-06-14T15:21:57.887Z,4.73
2018-06-14T15:24:28.285Z,6.00
2018-06-14T15:26:57.481Z,6.77
2018-06-14T15:29:28.225Z,7.13
2018-06-14T15:31:57.390Z,6.90
2018-06-14T15:34:26.617Z,5.07
2018-06-14T15:36:55.964Z,7.13
2018-06-14T15:39:25.690Z,6.90
2018-06-14T15:41:54.874Z,5.80
2018-06-14T15:44:24.031Z,6.57
2018-06-14T15:46:53.196Z,8.47
2018-06-14T15:49:22.347Z,8.30
2018-06-14T15:51:51.545Z,6.80
2018-06-14T15:54:20.787Z,6.63
2018-06-14T15:56:49.895Z,7.33
2018-06-14T15:59:18.830Z,7.00
2018-06-14T16:01:48.033Z,12.03
2018-06-14T16:04:17.182Z,7.30
2018-06-14T16:06:46.345Z,6.40
2018-06-14T16:09:15.498Z,12.40
2018-06-14T16:11:44.612Z,9.30
2018-06-14T16:14:13.756Z,12.37
2018-06-14T16:16:43.589Z,6.90
2018-06-14T16:19:12.796Z,6.30
2018-06-14T16:21:45.577Z,7.10
2018-06-14T16:24:14.973Z,7.80
2018-06-14T16:26:44.101Z,7.70
2018-06-14T16:29:13.205Z,6.80
2018-06-14T16:31:42.325Z,5.43
2018-06-14T16:34:11.471Z,7.70
2018-06-14T16:36:40.573Z,6.40
2018-06-14T16:39:09.950Z,6.30
2018-06-14T16:41:39.037Z,9.40
2018-06-14T16:44:08.177Z,6.13
2018-06-14T16:46:37.317Z,8.30
2018-06-14T16:49:06.431Z,9.13
2018-06-14T16:51:35.598Z,11.37
2018-06-14T16:54:04.795Z,7.87
2018-06-14T16:56:33.983Z,7.10
2018-06-14T16:59:03.100Z,7.43
2018-06-14T17:01:32.217Z,8.13
2018-06-14T17:04:01.645Z,11.33
2018-06-14T17:06:32.483Z,7.50
2018-06-14T17:09:01.650Z,13.63
2018-06-14T17:11:30.769Z,9.50
2018-06-14T17:13:59.870Z,9.17
2018-06-14T17:16:29.033Z,10.17
2018-06-14T17:18:58.516Z,11.63
2018-06-14T17:21:28.006Z,10.70
2018-06-14T17:23:57.159Z,13.27
2018-06-14T17:26:26.284Z,15.57
2018-06-14T17:28:55.444Z,11.47
2018-06-14T17:31:24.548Z,7.50
2018-06-14T17:33:53.942Z,9.80
2018-06-14T17:36:23.103Z,11.10
2018-06-14T17:38:52.322Z,11.93
2018-06-14T17:41:21.512Z,8.80
2018-06-14T17:43:50.669Z,10.57
2018-06-14T17:46:19.792Z,8.70
2018-06-14T17:48:48.965Z,10.27
2018-06-14T17:51:18.030Z,11.77
2018-06-14T17:53:47.237Z,11.63
2018-06-14T17:56:16.387Z,9.50
2018-06-14T17:58:45.685Z,10.03
2018-06-14T18:01:15.942Z,13.37
2018-06-14T18:03:45.413Z,11.60
2018-06-14T18:06:14.521Z,15.63
2018-06-14T18:08:43.632Z,17.40
2018-06-14T18:11:13.065Z,12.87
2018-06-14T18:13:42.213Z,10.07
2018-06-14T18:16:11.366Z,12.50
2018-06-14T18:18:40.481Z,12.37
2018-06-14T18:21:10.788Z,13.40
2018-06-14T18:23:39.946Z,10.90
2018-06-14T18:26:09.170Z,10.13
2018-06-14T18:28:38.365Z,17.00
2018-06-14T18:31:07.624Z,12.23
2018-06-14T18:33:36.856Z,11.47
2018-06-14T18:36:06.059Z,13.30
2018-06-14T18:38:35.297Z,11.20
2018-06-14T18:41:04.578Z,10.53
2018-06-14T18:43:33.768Z,16.10
2018-06-14T18:46:03.028Z,20.33
2018-06-14T18:48:32.480Z,14.67
2018-06-14T18:51:01.652Z,12.80
2018-06-14T18:53:30.968Z,16.97
2018-06-14T18:56:00.226Z,12.00
2018-06-14T18:58:29.408Z,13.33
2018-06-14T19:00:58.619Z,16.40
2018-06-14T19:03:27.827Z,16.50
2018-06-14T19:05:57.033Z,16.80
2018-06-14T19:08:26.255Z,12.50
2018-06-14T19:10:55.513Z,15.47
2018-06-14T19:13:24.730Z,12.60
2018-06-14T19:15:53.919Z,14.33
2018-06-14T19:18:23.089Z,12.40
2018-06-14T19:20:52.309Z,12.33
2018-06-14T19:23:21.516Z,15.20
2018-06-14T19:25:50.758Z,13.63
2018-06-14T19:28:20.013Z,12.17
2018-06-14T19:30:49.246Z,13.90
2018-06-14T19:33:18.480Z,13.80
2018-06-14T19:35:47.701Z,15.13
2018-06-14T19:38:17.035Z,14.00
2018-06-14T19:40:46.242Z,17.30
2018-06-14T19:43:15.504Z,20.77
2018-06-14T19:45:44.739Z,16.90
2018-06-14T19:48:13.947Z,18.30
2018-06-14T19:50:43.423Z,12.30
2018-06-14T19:53:12.672Z,16.37
2018-06-14T19:55:41.984Z,17.37
2018-06-14T19:58:11.216Z,32.37
2018-06-14T20:00:40.401Z,24.50
2018-06-14T20:03:09.582Z,16.53
2018-06-14T20:05:38.835Z,17.70
2018-06-14T20:08:07.966Z,12.90
2018-06-14T20:10:37.194Z,14.07
2018-06-14T20:13:06.710Z,42.70
2018-06-14T20:15:35.905Z,22.13
2018-06-14T20:18:05.185Z,16.87
2018-06-14T20:20:34.383Z,18.40
2018-06-14T20:23:03.608Z,15.30
2018-06-14T20:25:32.798Z,17.07
2018-06-14T20:28:02.016Z,11.50
2018-06-14T20:30:31.416Z,14.53
2018-06-14T20:33:00.607Z,13.60
2018-06-14T20:35:29.787Z,15.83
2018-06-14T20:37:58.956Z,15.70
2018-06-14T20:40:28.215Z,19.33
2018-06-14T20:42:57.363Z,18.13
2018-06-14T20:45:26.532Z,23.73
2018-06-14T20:47:56.313Z,18.27
2018-06-14T20:50:25.554Z,20.67
2018-06-14T20:52:54.779Z,22.47
2018-06-14T20:55:24.825Z,18.07
2018-06-14T20:57:54.036Z,27.07
2018-06-14T21:00:24.167Z,18.80
2018-06-14T21:02:53.482Z,17.07
2018-06-14T21:05:22.636Z,19.47
2018-06-14T21:07:52.583Z,12.80
2018-06-14T21:10:21.864Z,17.97
2018-06-14T21:12:51.336Z,15.23
2018-06-14T21:15:20.517Z,15.53
2018-06-14T21:17:49.672Z,12.73
2018-06-14T21:20:18.945Z,16.70
2018-06-14T21:22:48.053Z,16.50
2018-06-14T21:25:17.410Z,18.50
2018-06-14T21:27:46.582Z,17.17
2018-06-14T21:30:15.732Z,18.23
2018-06-14T21:32:45.000Z,18.33
2018-06-14T21:35:14.399Z,21.47
2018-06-14T21:37:43.502Z,18.27
2018-06-14T21:40:12.701Z,14.60
2018-06-14T21:42:42.307Z,26.83
2018-06-14T21:45:11.454Z,13.57
2018-06-14T21:47:40.697Z,18.03
2018-06-14T21:50:09.798Z,21.40
2018-06-14T21:52:40.698Z,14.50
2018-06-14T21:55:09.888Z,14.80
2018-06-14T21:57:40.037Z,17.17
2018-06-14T22:00:09.370Z,18.00
2018-06-14T22:02:46.729Z,17.10
2018-06-14T22:05:17.497Z,22.03
2018-06-14T22:07:46.654Z,15.20
2018-06-14T22:10:15.930Z,15.57
2018-06-14T22:12:45.534Z,16.40
2018-06-14T22:15:14.726Z,15.17
2018-06-14T22:17:44.073Z,17.40
2018-06-14T22:20:13.748Z,18.67
2018-06-14T22:22:43.625Z,22.90
2018-06-14T22:25:12.815Z,19.50
2018-06-14T22:27:41.937Z,19.57
2018-06-14T22:30:11.048Z,17.70
2018-06-14T22:32:40.157Z,17.77
2018-06-14T22:35:28.589Z,20.77
2018-06-14T22:37:57.864Z,21.80
2018-06-14T22:40:27.019Z,22.30
2018-06-14T22:42:56.157Z,20.40
2018-06-14T22:45:25.277Z,19.13
2018-06-14T22:47:54.376Z,21.07
2018-06-14T22:50:40.760Z,16.73
2018-06-14T22:53:10.774Z,18.17
2018-06-14T22:55:40.098Z,21.40
2018-06-14T22:58:09.271Z,19.57
2018-06-14T23:01:47.338Z,20.40
2018-06-14T23:04:18.000Z,24.17
2018-06-14T23:06:47.217Z,17.47
2018-06-14T23:10:38.665Z,22.60
2018-06-14T23:13:09.005Z,18.00
2018-06-14T23:15:38.206Z,21.30
2018-06-14T23:18:07.448Z,14.80
2018-06-14T23:20:37.062Z,24.50
2018-06-14T23:23:06.691Z,17.30
2018-06-14T23:25:36.251Z,14.17
2018-06-14T23:28:05.459Z,19.43
2018-06-14T23:30:34.590Z,20.30
2018-06-14T23:33:03.729Z,20.23
2018-06-14T23:35:32.851Z,20.00
2018-06-14T23:38:02.047Z,17.50
2018-06-14T23:40:31.265Z,18.30
2018-06-14T23:43:00.401Z,16.30
2018-06-14T23:45:29.622Z,18.77
2018-06-14T23:47:58.816Z,17.90
2018-06-14T23:50:28.007Z,15.13
2018-06-14T23:52:57.059Z,16.77
2018-06-14T23:55:26.200Z,16.80
2018-06-14T23:57:55.384Z,21.00
